• Join FlightAware (Why Join?)
  • Login
  • US Flag 
11:48PM EDT


 

Airport Tracker/Info


-or-


 

Live Flight TrackerFlight Track Log ✈ N103MK ✈ 13-Aug-2013 ✈ KCUB - KPDK

Flight Track Log - Related Links

Times and Time Zones

All times are in EDT time to prevent confusion due to time zone crossing. See the N103MK flight status page for this flight to view local times or setup timezone preferences in your user account.

Time Position Orientation Groundspeed Altitude Reporting Facility
EDT Latitude Longitude Course Direction KTS MPH feet Rate Location/Type
09:36AM 33.8500 -81.1952 270° West  Level FlightAware Approximate
09:37AM 33.8550 -81.2434 301° West  Level FlightAware Approximate
09:38AM 33.8675 -81.2895 273° West  Level FlightAware Approximate
09:39AM 33.8695 -81.3394 273° West  Level FlightAware Approximate
09:40AM 33.8714 -81.3893 273° West  Level FlightAware Approximate
09:41AM 33.8732 -81.4392 273° West  Level FlightAware Approximate
09:42AM 33.8751 -81.4892 273° West  Level FlightAware Approximate
09:43AM 33.8769 -81.5391 273° West  Level FlightAware Approximate
09:44AM 33.8788 -81.5890 273° West  Level FlightAware Approximate
09:45AM 33.8806 -81.6395 273° West  Level FlightAware Approximate
09:46AM 33.8824 -81.6900 272° West  Level FlightAware Approximate
09:47AM 33.8841 -81.7405 272° West  Level FlightAware Approximate
09:48AM 33.8858 -81.7911 272° West  Level FlightAware Approximate
09:49AM 33.8875 -81.8416 272° West  Level FlightAware Approximate
09:50AM 33.8892 -81.8921 272° West  Level FlightAware Approximate
09:51AM 33.8908 -81.9427 272° West  Level FlightAware Approximate
09:52AM 33.8924 -81.9932 272° West  Level FlightAware Approximate
09:53AM 33.8940 -82.0437 272° West  Level FlightAware Approximate
09:54AM 33.8956 -82.0943 272° West  Level FlightAware Approximate
09:55AM 33.8971 -82.1448 272° West  Level FlightAware Approximate
09:56AM 33.8987 -82.1953 272° West  Level FlightAware Approximate
09:57AM 33.9002 -82.2458 272° West  Level FlightAware Approximate
09:58AM 33.9017 -82.2964 272° West  Level FlightAware Approximate
09:59AM 33.9031 -82.3469 272° West  Level FlightAware Approximate
10:00AM 33.9046 -82.3975 272° West  Level FlightAware Approximate
10:01AM 33.9060 -82.4480 272° West  Level FlightAware Approximate
10:02AM 33.9074 -82.4985 272° West  Level FlightAware Approximate
10:03AM 33.9088 -82.5491 272° West  Level FlightAware Approximate
10:04AM 33.9102 -82.5996 272° West  Level FlightAware Approximate
10:05AM 33.9115 -82.6502 272° West  Level FlightAware Approximate
10:06AM 33.9129 -82.7007 272° West  Level FlightAware Approximate
10:07AM 33.9142 -82.7513 272° West  Level FlightAware Approximate
10:08AM 33.9155 -82.8018 272° West  Level FlightAware Approximate
10:09AM 33.9168 -82.8524 273° West  Level FlightAware Approximate
10:10AM 33.9187 -82.9029 273° West  Level FlightAware Approximate
10:10AM 33.9667 -82.7833 272° West 146 168 10,000  Level Atlanta TRACON
10:11AM 33.9205 -82.9534 273° West  Level FlightAware Approximate
10:11AM 33.9500 -82.8333 248° West 143 165 10,000  Level Atlanta TRACON
10:12AM 33.9224 -83.0040 273° West  Level FlightAware Approximate
10:12AM 33.9500 -82.8833 270° West 143 165 10,100  Level Atlanta TRACON
10:13AM 33.9242 -83.0545 273° West  Level FlightAware Approximate
10:13AM 33.9500 -82.9333 270° West 143 165 10,100  Level Atlanta TRACON
10:14AM 33.9260 -83.1050 272° West  Level FlightAware Approximate
10:14AM 33.9500 -82.9667 270° West 144 166 10,100  Level Atlanta TRACON
10:15AM 33.9278 -83.1556 272° West  Level FlightAware Approximate
10:15AM 33.9667 -83.0167 292° West 147 169 10,100  Level Atlanta TRACON
10:17AM 33.9592 -83.0844 262° West  Level FlightAware Approximate
10:17AM 33.9833 -83.1167 262° West 145 167 10,100  Level Atlanta TRACON
10:18AM 34.0000 -83.1667 292° West 145 167 10,100 -180 Level Atlanta TRACON
10:19AM 34.0000 -83.2167 270° West 151 174 9,800 -420 Descending Atlanta TRACON
10:20AM 34.0167 -83.2667 292° West 162 186 9,300 -480 Descending Atlanta TRACON
10:21AM 34.0167 -83.3167 270° West 165 190 8,900 -480 Descending Atlanta TRACON
10:22AM 34.0333 -83.3833 287° West 166 191 8,400 -540 Descending Atlanta TRACON
10:24AM 34.0500 -83.4833 281° West 164 189 7,500 -480 Descending Atlanta TRACON
10:25AM 34.0667 -83.5333 292° West 164 189 7,000 -480 Descending Atlanta TRACON
10:26AM 34.0667 -83.5833 270° West 163 188 6,500 -480 Descending Atlanta TRACON
10:27AM 34.0833 -83.6500 287° West 162 186 6,100 -180 Descending Atlanta TRACON
10:29AM 34.0504 -83.6994 231° Southwest  Level FlightAware Approximate
10:29AM 34.1000 -83.7500 231° Southwest 151 174 6,000  Level Atlanta TRACON
10:31AM 34.1167 -83.8333 284° West 146 168 6,000  Level Atlanta TRACON
10:33AM 34.1167 -83.9333 270° West 152 175 6,000  Level Atlanta TRACON
10:35AM 34.0825 -83.9814 229° Southwest  Level FlightAware Approximate
10:36AM 34.0667 -84.0500 229° Southwest 141 162 6,000  Level Atlanta TRACON
10:38AM 34.0294 -84.0936 224° Southwest  Level FlightAware Approximate
10:42AM 33.9833 -84.2500 270° West 138 159 3,000  Level Atlanta TRACON
10:44AM 33.9167 -84.2833 203° Southwest 136 157 1,600 -720 Descending Atlanta TRACON
10:45AM 33.8667 -84.3000 270° West  Level FlightAware Approximate
10:46AM 33.8667 -84.2871 270° West  Level FlightAware Approximate
10:46AM 33.8756 -84.3020 270° West  Level Estimated
10:47AM 33.8756 -84.3020 270° West  Level Estimated
10:53AM 33.8667 -84.3000 270° West  Level FlightAware Approximate